Time;durP1;ratioP1;P1;durP2;ratioP2;P2;SDS_P1;SDS_P2;PMS_P1;PMS_P2;Temp;Humidity;BMP_temperature;BMP_pressure;BME280_temperature;BME280_humidity;BME280_pressure;Samples;Min_cycle;Max_cycle;Signal;HPM_P1;HPM_P2
2022/11/12 00:03:10;;;;;;;8.63;5.33;;;9.90;99.90;;;;;;1945113;72;22205;-81
2022/11/12 00:06:20;;;;;;;7.60;5.12;;;10.00;99.90;;;;;;1891104;75;21102;-82
2022/11/12 00:09:29;;;;;;;7.47;5.37;;;9.90;99.90;;;;;;1870173;75;21153;-82
2022/11/12 00:12:38;;;;;;;7.45;5.03;;;9.80;99.90;;;;;;1872549;75;21098;-82
2022/11/12 00:18:27;;;;;;;8.10;5.92;;;9.70;99.90;;;;;;1953024;72;22169;-83
2022/11/12 00:21:37;;;;;;;8.48;5.35;;;9.70;99.90;;;;;;1922907;73;21156;-83
2022/11/12 00:24:46;;;;;;;7.67;5.50;;;9.70;99.90;;;;;;1927897;73;21082;-82
2022/11/12 00:27:57;;;;;;;9.80;6.03;;;9.70;99.90;;;;;;1917430;73;21131;-82
2022/11/12 00:33:49;;;;;;;6.12;5.05;;;9.50;99.90;;;;;;1933160;72;22178;-81
2022/11/12 00:36:58;;;;;;;7.05;5.20;;;9.60;99.90;;;;;;1879255;75;21173;-82
2022/11/12 00:42:52;;;;;;;9.05;5.62;;;9.40;99.90;;;;;;1935023;72;22190;-83
2022/11/12 00:46:01;;;;;;;8.25;5.50;;;9.40;99.90;;;;;;1912641;73;21108;-82
2022/11/12 00:49:11;;;;;;;8.40;5.37;;;9.50;99.90;;;;;;1930577;73;21175;-81
2022/11/12 00:54:59;;;;;;;7.25;5.95;;;9.50;99.90;;;;;;1944059;72;22272;-83
2022/11/12 00:58:09;;;;;;;6.65;5.22;;;9.50;99.90;;;;;;1874465;74;21161;-82
2022/11/12 01:01:19;;;;;;;8.28;5.58;;;9.50;99.90;;;;;;1886852;75;21082;-81
2022/11/12 01:04:28;;;;;;;6.72;5.22;;;9.60;99.90;;;;;;1885613;75;21143;-83
2022/11/12 01:07:37;;;;;;;6.30;5.12;;;9.50;99.90;;;;;;1890211;75;21137;-82
2022/11/12 01:10:46;;;;;;;6.12;5.00;;;9.50;99.90;;;;;;1881428;73;21169;-81
2022/11/12 01:14:04;;;;;;;6.58;5.12;;;9.50;99.90;;;;;;1887691;75;21099;-82
2022/11/12 01:17:15;;;;;;;7.70;5.25;;;9.40;99.90;;;;;;1892491;75;21550;-81
2022/11/12 01:20:25;;;;;;;7.28;5.08;;;9.40;99.90;;;;;;1882773;75;21103;-81
2022/11/12 01:23:35;;;;;;;6.40;4.72;;;9.30;99.90;;;;;;1887197;75;21094;-82
2022/11/12 01:26:45;;;;;;;7.55;5.08;;;9.30;99.90;;;;;;1890499;75;21095;-81
2022/11/12 01:29:55;;;;;;;7.47;4.87;;;9.30;99.90;;;;;;1883458;75;21103;-81
2022/11/12 01:33:05;;;;;;;7.33;4.95;;;9.30;99.90;;;;;;1892030;75;21099;-82
2022/11/12 01:36:17;;;;;;;7.30;5.12;;;9.40;99.90;;;;;;1875296;75;21095;-82
2022/11/12 01:39:26;;;;;;;5.80;4.37;;;9.30;99.90;;;;;;1872844;75;21110;-82
2022/11/12 01:42:35;;;;;;;7.22;4.97;;;9.30;99.90;;;;;;1875962;75;21110;-82
2022/11/12 01:48:30;;;;;;;6.37;4.83;;;9.40;99.90;;;;;;1926443;72;22178;-81
2022/11/12 01:51:41;;;;;;;6.40;4.80;;;9.30;99.90;;;;;;1924801;74;21545;-82
2022/11/12 01:57:38;;;;;;;8.00;5.08;;;9.30;99.90;;;;;;1961727;72;20179;-83
2022/11/12 02:03:27;;;;;;;8.40;5.12;;;9.20;99.90;;;;;;1941979;72;22225;-81
2022/11/12 02:06:37;;;;;;;8.85;4.90;;;9.20;99.90;;;;;;1882037;75;21063;-82
2022/11/12 02:09:47;;;;;;;6.62;4.95;;;9.20;99.90;;;;;;1893442;75;21066;-82
2022/11/12 02:16:25;;;;;;;5.65;4.50;;;9.20;99.90;;;;;;1881993;75;21098;-82
2022/11/12 02:22:17;;;;;;;6.37;4.70;;;9.10;99.90;;;;;;1968634;72;22216;-83
2022/11/12 02:28:07;;;;;;;5.25;3.87;;;9.10;99.90;;;;;;1952306;72;22326;-83
2022/11/12 02:31:17;;;;;;;5.80;4.37;;;9.00;99.90;;;;;;1903215;75;21152;-82
2022/11/12 02:34:26;;;;;;;7.08;4.67;;;9.00;99.90;;;;;;1882887;75;21168;-82
2022/11/12 02:37:35;;;;;;;7.10;4.92;;;9.10;99.90;;;;;;1888740;75;21535;-83
2022/11/12 02:43:24;;;;;;;6.53;4.78;;;9.10;99.90;;;;;;1925771;72;22185;-83
2022/11/12 02:46:33;;;;;;;6.35;4.90;;;9.00;99.90;;;;;;1894557;75;21136;-82
2022/11/12 02:49:43;;;;;;;6.83;5.00;;;8.90;99.90;;;;;;1894540;75;21186;-82
2022/11/12 02:52:52;;;;;;;6.05;4.80;;;8.80;99.90;;;;;;1890501;75;21157;-82
2022/11/12 02:56:03;;;;;;;6.25;4.85;;;8.80;99.90;;;;;;1895561;75;21071;-82
2022/11/12 02:59:12;;;;;;;8.83;4.53;;;8.80;99.90;;;;;;1881371;75;21102;-82
2022/11/12 03:02:21;;;;;;;6.00;4.40;;;8.70;99.90;;;;;;1884109;75;21099;-82
2022/11/12 03:08:10;;;;;;;6.62;4.47;;;8.60;99.90;;;;;;1936183;72;22699;-83
2022/11/12 03:13:58;;;;;;;6.37;4.83;;;8.50;99.90;;;;;;1954457;72;22227;-81
2022/11/12 03:17:07;;;;;;;6.35;4.40;;;8.50;99.90;;;;;;1897171;74;21114;-82
2022/11/12 03:20:17;;;;;;;6.37;4.70;;;8.50;99.90;;;;;;1880497;75;21157;-82
2022/11/12 03:23:27;;;;;;;6.65;4.75;;;8.50;99.90;;;;;;1877310;75;21095;-82
2022/11/12 03:26:37;;;;;;;6.28;4.05;;;8.50;99.90;;;;;;1896978;75;21083;-82
2022/11/12 03:29:46;;;;;;;6.30;4.08;;;8.50;99.90;;;;;;1884294;75;21086;-82
2022/11/12 03:32:55;;;;;;;6.35;4.45;;;8.50;99.90;;;;;;1871732;75;21110;-82
2022/11/12 03:38:48;;;;;;;6.85;4.37;;;8.50;99.90;;;;;;1936128;72;22620;-83
2022/11/12 03:42:00;;;;;;;6.35;4.67;;;8.50;99.90;;;;;;1905694;75;21096;-82
2022/11/12 03:45:10;;;;;;;10.35;3.87;;;8.40;99.90;;;;;;1912878;75;21116;-82
2022/11/12 03:48:19;;;;;;;5.10;3.77;;;8.40;99.90;;;;;;1914974;75;21267;-83
2022/11/12 03:51:29;;;;;;;5.05;3.77;;;8.40;99.90;;;;;;1916453;75;21164;-82
2022/11/12 03:54:38;;;;;;;4.78;3.67;;;8.50;99.90;;;;;;1916845;75;21109;-82
2022/11/12 03:57:50;;;;;;;5.05;3.83;;;8.50;99.90;;;;;;1893514;75;21164;-82
2022/11/12 04:01:00;;;;;;;7.33;4.30;;;8.60;99.90;;;;;;1907801;75;21127;-84
2022/11/12 04:04:10;;;;;;;5.62;3.87;;;8.60;99.90;;;;;;1892247;75;21078;-84
2022/11/12 04:10:50;;;;;;;4.90;3.90;;;8.60;99.90;;;;;;1896316;74;21099;-82
2022/11/12 04:14:00;;;;;;;5.83;4.05;;;8.60;99.90;;;;;;1913351;75;21100;-82
2022/11/12 04:23:15;;;;;;;7.87;4.70;;;8.60;99.90;;;;;;1887785;75;21617;-82
2022/11/12 04:26:25;;;;;;;4.60;3.83;;;8.60;99.90;;;;;;1888881;75;21097;-82
2022/11/12 04:33:01;;;;;;;7.67;4.53;;;8.60;99.90;;;;;;1894320;75;21094;-82
2022/11/12 04:38:50;;;;;;;6.22;3.98;;;8.40;99.90;;;;;;1936882;72;22189;-83
2022/11/12 04:48:06;;;;;;;6.05;3.80;;;8.30;99.90;;;;;;1938675;72;22253;-81
2022/11/12 04:54:42;;;;;;;6.78;4.00;;;8.30;99.90;;;;;;1886128;75;21144;-82
2022/11/12 04:57:51;;;;;;;4.90;3.67;;;8.30;99.90;;;;;;1891499;75;21095;-82
2022/11/12 05:01:02;;;;;;;5.08;3.87;;;8.30;99.90;;;;;;1900466;75;21137;-82
2022/11/12 05:04:12;;;;;;;9.13;4.53;;;8.30;99.90;;;;;;1901871;75;21098;-81
2022/11/12 05:07:22;;;;;;;5.10;4.45;;;8.20;99.90;;;;;;1887108;75;21097;-81
2022/11/12 05:10:32;;;;;;;5.85;3.92;;;8.20;99.90;;;;;;1905265;75;21171;-81
2022/11/12 05:13:41;;;;;;;7.12;4.30;;;8.30;99.90;;;;;;1886338;75;21149;-82
2022/11/12 05:16:51;;;;;;;5.42;3.80;;;8.20;99.90;;;;;;1889315;75;21160;-82
2022/11/12 05:22:40;;;;;;;6.08;3.75;;;8.20;99.90;;;;;;1942407;72;22273;-83
2022/11/12 05:25:50;;;;;;;4.53;3.60;;;8.20;99.90;;;;;;1933871;73;21124;-82
2022/11/12 05:28:59;;;;;;;6.45;3.70;;;8.20;99.90;;;;;;1916489;73;21100;-82
2022/11/12 05:32:12;;;;;;;4.87;3.33;;;8.30;99.90;;;;;;1930691;73;21467;-82
2022/11/12 05:38:00;;;;;;;4.60;3.52;;;8.30;99.90;;;;;;1938151;72;22338;-81
2022/11/12 05:43:47;;;;;;;6.25;3.47;;;8.30;99.90;;;;;;1940129;72;22238;-83
2022/11/12 05:46:56;;;;;;;4.37;3.40;;;8.30;99.90;;;;;;1886920;75;21180;-82
2022/11/12 05:50:07;;;;;;;7.12;3.35;;;8.20;99.90;;;;;;1897063;75;21103;-81
2022/11/12 05:53:16;;;;;;;5.70;3.67;;;8.30;99.90;;;;;;1900791;75;21122;-82
2022/11/12 05:56:26;;;;;;;5.12;3.47;;;8.20;99.90;;;;;;1890266;75;21154;-81
2022/11/12 05:59:35;;;;;;;6.08;2.98;;;8.10;99.90;;;;;;1880086;75;21095;-82
2022/11/12 06:02:47;;;;;;;6.37;3.20;;;8.20;99.90;;;;;;1897799;75;21099;-82
2022/11/12 06:08:36;;;;;;;5.25;3.22;;;8.10;99.90;;;;;;1955729;72;22255;-80
2022/11/12 06:11:45;;;;;;;3.95;3.37;;;8.10;99.90;;;;;;1919119;73;21139;-83
2022/11/12 06:17:40;;;;;;;6.35;4.40;;;8.00;99.90;;;;;;1910755;74;28211;-83
2022/11/12 06:23:37;;;;;;;5.28;3.65;;;8.10;99.90;;;;;;1935910;72;22747;-83
2022/11/12 06:26:47;;;;;;;5.58;3.80;;;8.00;99.90;;;;;;1892330;75;21098;-82
2022/11/12 06:29:56;;;;;;;5.05;4.10;;;8.00;99.90;;;;;;1883836;75;21620;-82
2022/11/12 06:33:06;;;;;;;5.45;4.12;;;7.90;99.90;;;;;;1892048;75;21206;-81
2022/11/12 06:36:17;;;;;;;4.55;4.10;;;7.90;99.90;;;;;;1899515;75;21464;-81
2022/11/12 06:39:27;;;;;;;6.90;4.00;;;7.90;99.90;;;;;;1883585;75;21872;-78
2022/11/12 06:42:37;;;;;;;4.40;3.98;;;7.80;99.90;;;;;;1912336;75;21168;-74
2022/11/12 06:48:25;;;;;;;4.30;3.47;;;7.80;99.90;;;;;;1959381;72;22287;-76
2022/11/12 06:51:35;;;;;;;4.80;3.67;;;7.80;99.90;;;;;;1906689;75;21097;-74
2022/11/12 06:54:44;;;;;;;5.15;3.60;;;7.80;99.90;;;;;;1929874;73;21135;-76
2022/11/12 06:57:54;;;;;;;7.80;3.80;;;7.80;99.90;;;;;;1919030;74;21098;-75
2022/11/12 07:01:09;;;;;;;6.53;3.92;;;7.80;99.90;;;;;;1913805;74;21569;-74
2022/11/12 07:04:20;;;;;;;6.42;3.70;;;7.90;99.90;;;;;;1921519;74;21148;-74
2022/11/12 07:07:30;;;;;;;4.72;3.70;;;7.90;99.90;;;;;;1900199;75;21086;-74
2022/11/12 07:10:40;;;;;;;5.33;3.58;;;7.90;99.90;;;;;;1905261;75;21086;-74
2022/11/12 07:16:30;;;;;;;4.62;3.80;;;7.90;99.90;;;;;;1950721;72;22345;-73
2022/11/12 07:19:39;;;;;;;6.80;3.55;;;7.90;99.90;;;;;;1934089;73;21097;-75
2022/11/12 07:22:47;;;;;;;3.92;3.20;;;7.90;99.90;;;;;;1918517;73;21078;-74
2022/11/12 07:28:37;;;;;;;5.78;4.00;;;7.90;99.90;;;;;;1950397;72;22209;-75
2022/11/12 07:31:47;;;;;;;4.60;3.35;;;7.80;99.90;;;;;;1928774;73;21091;-75
2022/11/12 07:34:55;;;;;;;4.55;3.55;;;7.90;99.90;;;;;;1925726;73;21134;-75
2022/11/12 07:38:05;;;;;;;6.60;4.92;;;8.00;99.90;;;;;;1920774;73;21196;-75
2022/11/12 07:41:16;;;;;;;8.00;4.05;;;8.00;99.90;;;;;;1931410;73;21148;-74
2022/11/12 07:44:26;;;;;;;5.28;4.17;;;8.00;99.90;;;;;;1931953;73;21175;-76
2022/11/12 07:47:35;;;;;;;4.97;3.77;;;8.10;99.90;;;;;;1922095;73;21115;-75
2022/11/12 07:53:24;;;;;;;5.50;3.92;;;8.10;99.90;;;;;;1939373;72;22265;-76
2022/11/12 07:56:34;;;;;;;7.40;4.05;;;8.20;99.90;;;;;;1905090;74;21101;-74
2022/11/12 07:59:43;;;;;;;5.42;3.70;;;8.20;99.90;;;;;;1912385;75;21087;-74
2022/11/12 08:02:53;;;;;;;7.53;3.70;;;8.30;99.90;;;;;;1900155;74;21153;-74
2022/11/12 08:08:41;;;;;;;5.45;3.90;;;8.30;99.90;;;;;;1947288;72;22212;-76
2022/11/12 08:11:50;;;;;;;6.00;3.85;;;8.30;99.90;;;;;;1890646;73;21136;-76
2022/11/12 08:14:59;;;;;;;5.90;3.50;;;8.40;99.90;;;;;;1899822;75;21207;-75
2022/11/12 08:20:47;;;;;;;5.35;3.95;;;8.50;99.90;;;;;;1949860;72;22668;-75
2022/11/12 08:23:56;;;;;;;5.90;3.87;;;8.50;99.90;;;;;;1919530;73;21228;-75
2022/11/12 08:27:05;;;;;;;6.08;3.65;;;8.60;99.90;;;;;;1933906;73;21182;-74
2022/11/12 08:32:59;;;;;;;4.40;3.30;;;8.70;99.90;;;;;;1954136;72;22220;-76
2022/11/12 08:36:10;;;;;;;3.40;3.08;;;8.70;99.90;;;;;;1926891;73;21569;-74
2022/11/12 08:39:20;;;;;;;3.70;3.27;;;8.80;99.90;;;;;;1928346;73;21160;-74
2022/11/12 08:42:29;;;;;;;5.58;3.40;;;8.80;99.90;;;;;;1939394;73;21599;-74
2022/11/12 08:48:28;;;;;;;5.37;3.72;;;8.90;99.90;;;;;;1940795;72;22288;-75
2022/11/12 08:51:37;;;;;;;13.90;3.90;;;8.90;99.90;;;;;;1923943;73;21382;-75
2022/11/12 08:54:47;;;;;;;3.98;3.37;;;9.00;99.90;;;;;;1915882;73;21122;-75
2022/11/12 08:58:00;;;;;;;8.53;4.12;;;9.00;99.90;;;;;;1931722;73;21208;-76
2022/11/12 09:01:08;;;;;;;5.20;3.75;;;9.10;99.90;;;;;;1920384;73;21094;-76
2022/11/12 09:04:18;;;;;;;5.30;3.95;;;9.10;99.90;;;;;;1925049;73;21164;-75
2022/11/12 09:07:27;;;;;;;6.00;3.80;;;9.20;99.90;;;;;;1912100;73;21610;-74
2022/11/12 09:10:39;;;;;;;6.35;4.90;;;9.30;99.90;;;;;;1908378;75;21117;-75
2022/11/12 09:13:48;;;;;;;6.22;4.40;;;9.40;99.90;;;;;;1909874;73;21162;-75
2022/11/12 09:19:37;;;;;;;5.95;4.47;;;9.50;99.90;;;;;;1949862;72;22220;-75
2022/11/12 09:25:25;;;;;;;5.35;4.25;;;9.70;99.90;;;;;;1933685;72;22363;-75
2022/11/12 09:28:34;;;;;;;7.28;4.95;;;9.70;99.90;;;;;;1895642;73;21079;-74
2022/11/12 09:31:44;;;;;;;6.67;4.80;;;9.80;99.90;;;;;;1873778;75;21059;-74
2022/11/12 09:37:32;;;;;;;6.75;5.42;;;10.10;99.90;;;;;;1958675;72;22224;-75
2022/11/12 09:40:50;;;;;;;6.62;5.67;;;10.10;99.90;;;;;;1946137;73;21094;-75
2022/11/12 09:44:02;;;;;;;7.80;5.00;;;10.20;99.90;;;;;;1916520;75;21145;-75
2022/11/12 09:47:15;;;;;;;5.80;5.20;;;10.20;99.90;;;;;;1918642;73;21217;-75
2022/11/12 09:53:07;;;;;;;8.53;4.83;;;10.20;99.90;;;;;;1960604;72;22718;-75
2022/11/12 09:56:19;;;;;;;4.78;3.92;;;10.20;99.90;;;;;;1930312;73;21106;-75
2022/11/12 09:59:32;;;;;;;6.87;4.10;;;10.40;99.90;;;;;;1924671;73;21224;-75
2022/11/12 10:02:44;;;;;;;5.90;3.87;;;10.50;99.90;;;;;;1929518;73;21156;-75
2022/11/12 10:05:56;;;;;;;5.80;4.55;;;10.60;99.90;;;;;;1920866;73;21046;-75
2022/11/12 10:09:10;;;;;;;6.00;4.80;;;10.60;99.90;;;;;;1916006;75;21140;-74
2022/11/12 10:12:32;;;;;;;6.12;4.58;;;10.80;99.90;;;;;;1920936;73;21093;-75
2022/11/12 10:18:30;;;;;;;7.42;4.90;;;11.00;99.90;;;;;;1936532;72;22238;-75
2022/11/12 10:24:23;;;;;;;5.60;4.92;;;11.10;99.90;;;;;;1940926;72;22619;-76
2022/11/12 10:27:36;;;;;;;7.25;5.35;;;11.20;99.90;;;;;;1910889;73;21144;-76
2022/11/12 10:30:46;;;;;;;6.20;4.70;;;11.30;99.90;;;;;;1912270;73;21170;-75
2022/11/12 10:34:01;;;;;;;7.30;4.65;;;11.30;99.90;;;;;;1904128;74;21558;-75
2022/11/12 10:42:34;;;;;;;5.92;5.30;;;11.50;99.90;;;;;;1947559;72;22197;-76
2022/11/12 10:48:27;;;;;;;7.25;5.55;;;11.70;99.90;;;;;;1955014;72;22210;-76
2022/11/12 10:51:37;;;;;;;6.50;5.03;;;11.80;99.90;;;;;;1890389;75;21089;-75
2022/11/12 10:54:47;;;;;;;7.78;5.90;;;11.90;99.90;;;;;;1926873;74;21083;-76
2022/11/12 10:58:24;;;;;;;10.53;6.03;;;12.00;99.90;;;;;;1924340;74;21151;-75
2022/11/12 11:01:34;;;;;;;7.33;5.55;;;12.10;99.90;;;;;;1907087;75;21607;-76
2022/11/12 11:04:45;;;;;;;7.05;5.80;;;12.20;99.90;;;;;;1906840;75;21145;-75
2022/11/12 11:07:54;;;;;;;7.58;5.78;;;12.20;99.90;;;;;;1916228;75;21121;-75
2022/11/12 11:14:32;;;;;;;6.67;5.70;;;12.20;99.90;;;;;;1950051;72;22322;-75
2022/11/12 11:17:41;;;;;;;6.50;5.50;;;12.30;99.90;;;;;;1905582;75;21196;-75
2022/11/12 11:20:53;;;;;;;7.00;5.80;;;12.40;99.90;;;;;;1876048;76;21154;-74
2022/11/12 11:24:14;;;;;;;8.53;5.97;;;12.60;99.90;;;;;;1903082;75;21168;-74
2022/11/12 11:27:34;;;;;;;7.25;5.70;;;12.60;99.90;;;;;;1883821;75;21102;-75
2022/11/12 11:30:47;;;;;;;9.65;6.17;;;12.70;99.90;;;;;;1825688;78;21184;-75
2022/11/12 11:33:59;;;;;;;8.38;6.40;;;12.70;99.90;;;;;;1862334;76;21114;-75
2022/11/12 11:39:58;;;;;;;10.15;6.50;;;12.80;99.90;;;;;;1929426;72;22279;-76
2022/11/12 11:43:35;;;;;;;11.15;7.35;;;12.90;99.90;;;;;;1909702;75;21122;-75
2022/11/12 11:46:53;;;;;;;11.68;8.38;;;13.00;99.90;;;;;;1890183;75;21576;-75
2022/11/12 11:50:25;;;;;;;9.73;7.20;;;13.00;99.90;;;;;;1894055;75;21106;-75
2022/11/12 11:53:38;;;;;;;9.55;7.15;;;13.10;99.90;;;;;;1919849;74;21225;-75
2022/11/12 11:56:49;;;;;;;7.78;6.72;;;13.20;99.90;;;;;;1895969;75;21152;-75
2022/11/12 12:00:09;;;;;;;7.78;6.45;;;13.20;99.90;;;;;;1895989;75;21212;-75
2022/11/12 12:03:22;;;;;;;8.43;6.85;;;13.30;99.90;;;;;;1897613;75;21251;-75
2022/11/12 12:06:34;;;;;;;9.18;7.90;;;13.40;99.90;;;;;;1896235;75;21090;-75
2022/11/12 12:09:48;;;;;;;9.60;7.30;;;13.40;99.90;;;;;;1884049;75;21110;-76
2022/11/12 12:13:01;;;;;;;10.53;7.62;;;13.40;99.90;;;;;;1895015;75;21087;-75
2022/11/12 12:16:20;;;;;;;9.48;6.65;;;13.50;99.90;;;;;;1882908;75;21118;-75
2022/11/12 12:19:44;;;;;;;10.35;7.35;;;13.50;99.90;;;;;;1895542;75;21138;-76
2022/11/12 12:22:55;;;;;;;9.70;7.15;;;13.60;99.90;;;;;;1901238;75;21102;-76
2022/11/12 12:26:08;;;;;;;9.43;6.95;;;13.60;99.90;;;;;;1897533;75;21166;-75
2022/11/12 12:29:21;;;;;;;10.08;7.05;;;13.60;99.90;;;;;;1897395;75;21106;-75
2022/11/12 12:32:33;;;;;;;10.23;7.08;;;13.60;99.90;;;;;;1902128;75;21170;-75
2022/11/12 12:35:46;;;;;;;8.03;6.70;;;13.70;99.90;;;;;;1882590;76;21204;-75
2022/11/12 12:39:00;;;;;;;10.13;7.12;;;13.70;99.90;;;;;;1901272;74;21145;-75
2022/11/12 12:42:18;;;;;;;8.95;6.12;;;13.70;99.90;;;;;;1913525;74;21171;-76
2022/11/12 12:45:36;;;;;;;9.80;7.15;;;13.80;99.90;;;;;;1912654;74;21615;-77
2022/11/12 12:48:47;;;;;;;10.58;7.70;;;13.80;99.90;;;;;;1840208;77;21140;-76
2022/11/12 12:51:58;;;;;;;9.88;7.62;;;13.70;99.90;;;;;;1898918;74;21218;-76
2022/11/12 12:55:16;;;;;;;9.98;7.35;;;13.70;99.90;;;;;;1911571;74;21187;-74
2022/11/12 12:58:28;;;;;;;9.85;8.25;;;13.70;99.90;;;;;;1927986;74;21077;-74
2022/11/12 13:01:38;;;;;;;10.48;7.87;;;13.70;99.90;;;;;;1911641;74;21117;-75
2022/11/12 13:04:56;;;;;;;11.22;7.75;;;13.70;99.90;;;;;;1900152;74;21088;-76
2022/11/12 13:08:05;;;;;;;;;;;13.70;99.90;;;;;;1902656;74;21633;-75
2022/11/12 13:12:20;;;;;;;11.35;8.45;;;13.70;99.90;;;;;;1909701;74;20192;-76
2022/11/12 13:18:15;;;;;;;11.43;8.40;;;13.70;99.90;;;;;;1956091;72;22220;-75
2022/11/12 13:21:25;;;;;;;11.78;8.53;;;13.60;99.90;;;;;;1916422;73;21066;-75
2022/11/12 13:25:01;;;;;;;13.22;9.30;;;13.60;99.90;;;;;;1932930;73;21171;-74
2022/11/12 13:28:13;;;;;;;11.20;8.30;;;13.60;99.90;;;;;;1927926;73;21209;-75
2022/11/12 13:31:28;;;;;;;11.97;8.80;;;13.60;99.90;;;;;;1937839;73;21184;-74
2022/11/12 13:34:37;;;;;;;11.78;9.23;;;13.60;99.90;;;;;;1937926;73;21140;-76
2022/11/12 13:37:49;;;;;;;10.98;8.58;;;13.60;99.90;;;;;;1930527;73;21102;-75
2022/11/12 13:41:02;;;;;;;13.08;9.85;;;13.60;99.90;;;;;;1916055;75;21101;-75
2022/11/12 13:44:15;;;;;;;12.15;9.30;;;13.60;99.90;;;;;;1916499;73;21130;-75
2022/11/12 13:47:27;;;;;;;10.90;8.53;;;13.60;99.90;;;;;;1916348;75;21578;-74
2022/11/12 13:50:35;;;;;;;11.57;7.85;;;13.70;99.90;;;;;;1916413;75;21097;-75
2022/11/12 13:53:46;;;;;;;9.78;7.40;;;13.70;99.90;;;;;;1941412;73;21125;-76
2022/11/12 13:56:56;;;;;;;9.78;7.62;;;13.80;99.90;;;;;;1916344;75;21412;-74
2022/11/12 14:00:25;;;;;;;10.08;7.70;;;13.90;99.90;;;;;;1880766;76;21557;-75
2022/11/12 14:03:38;;;;;;;10.50;7.45;;;13.90;99.90;;;;;;1932971;73;21127;-75
2022/11/12 14:06:49;;;;;;;9.25;6.85;;;14.00;99.90;;;;;;1916301;75;21660;-74
2022/11/12 14:10:02;;;;;;;9.20;7.00;;;14.00;99.90;;;;;;1916396;73;21600;-75
2022/11/12 14:13:36;;;;;;;9.93;6.83;;;14.10;99.90;;;;;;1917223;73;21108;-75
2022/11/12 14:16:53;;;;;;;8.88;7.37;;;14.10;99.90;;;;;;1923436;73;21165;-75
2022/11/12 14:20:24;;;;;;;10.23;6.95;;;14.10;99.90;;;;;;1913324;75;21086;-74
2022/11/12 14:23:35;;;;;;;16.87;7.12;;;14.10;99.90;;;;;;1927889;74;21108;-74
2022/11/12 14:26:45;;;;;;;8.75;7.30;;;14.20;99.90;;;;;;1921819;74;21129;-74
2022/11/12 14:30:14;;;;;;;9.70;8.03;;;14.30;99.90;;;;;;1888920;74;21148;-74
2022/11/12 14:33:25;;;;;;;8.53;7.03;;;14.30;99.90;;;;;;1943868;73;21553;-74
2022/11/12 14:36:36;;;;;;;10.25;7.03;;;14.40;99.90;;;;;;1861734;76;21118;-74
2022/11/12 14:39:45;;;;;;;9.83;6.85;;;14.40;99.90;;;;;;1910874;74;21114;-75
2022/11/12 14:42:55;;;;;;;8.73;7.12;;;14.50;99.90;;;;;;1860665;76;21193;-75
2022/11/12 14:46:06;;;;;;;9.55;7.70;;;14.50;99.90;;;;;;1886774;74;21578;-75
2022/11/12 14:49:20;;;;;;;7.70;6.17;;;14.50;99.90;;;;;;1861275;76;21176;-75
2022/11/12 14:52:32;;;;;;;8.90;6.22;;;14.50;99.90;;;;;;1916797;74;21105;-75
2022/11/12 14:55:44;;;;;;;7.75;6.15;;;14.40;99.90;;;;;;1901110;75;21127;-75
2022/11/12 14:58:55;;;;;;;8.05;5.83;;;14.40;99.90;;;;;;1914912;74;21152;-74
2022/11/12 15:02:07;;;;;;;9.23;6.22;;;14.40;99.90;;;;;;1913706;74;21191;-75
2022/11/12 15:05:22;;;;;;;7.87;5.33;;;14.30;99.90;;;;;;1914012;74;22124;-75
2022/11/12 15:08:33;;;;;;;7.20;5.70;;;14.20;99.90;;;;;;1918868;74;21161;-75
2022/11/12 15:11:47;;;;;;;13.30;6.03;;;14.20;99.90;;;;;;1863324;76;21149;-75
2022/11/12 15:15:05;;;;;;;7.20;6.35;;;14.20;99.90;;;;;;1913378;74;21131;-75
2022/11/12 15:18:18;;;;;;;8.45;5.85;;;14.20;99.90;;;;;;1904919;74;21151;-75
2022/11/12 15:21:29;;;;;;;8.60;6.42;;;14.10;99.90;;;;;;1915889;75;21570;-78
2022/11/12 15:24:42;;;;;;;7.87;6.08;;;14.10;99.90;;;;;;1915841;75;21139;-76
2022/11/12 15:27:50;;;;;;;7.72;5.83;;;13.90;99.90;;;;;;1915464;75;21174;-76
2022/11/12 15:31:05;;;;;;;11.03;5.87;;;13.90;99.90;;;;;;1915836;75;21103;-79
2022/11/12 15:34:28;;;;;;;7.20;5.67;;;13.80;99.90;;;;;;1915836;75;21193;-80
2022/11/12 15:37:42;;;;;;;7.72;5.62;;;13.70;99.90;;;;;;1903545;75;21170;-79
2022/11/12 15:40:55;;;;;;;7.35;5.78;;;13.70;99.90;;;;;;1920324;74;21082;-78
2022/11/12 15:44:08;;;;;;;6.85;5.40;;;13.70;99.90;;;;;;1924632;73;21106;-79
2022/11/12 15:50:01;;;;;;;7.55;4.85;;;13.50;99.90;;;;;;1942920;72;22241;-79
2022/11/12 15:53:11;;;;;;;6.65;5.08;;;13.50;99.90;;;;;;1921843;73;21516;-79
2022/11/12 15:56:21;;;;;;;7.67;5.40;;;13.50;99.90;;;;;;1922452;73;21070;-79
2022/11/12 15:59:30;;;;;;;8.88;5.35;;;13.50;99.90;;;;;;1918523;73;21192;-80
2022/11/12 16:02:39;;;;;;;6.37;4.83;;;13.40;99.90;;;;;;1916177;75;21145;-80
2022/11/12 16:05:49;;;;;;;6.78;4.95;;;13.40;99.90;;;;;;1915696;75;21116;-79
2022/11/12 16:11:42;;;;;;;7.62;5.97;;;13.40;99.90;;;;;;1931330;72;22771;-81
2022/11/12 16:17:31;;;;;;;10.13;6.65;;;13.30;99.90;;;;;;1942902;72;22252;-81
2022/11/12 16:20:40;;;;;;;9.48;7.03;;;13.30;99.90;;;;;;1924050;73;21085;-79
2022/11/12 16:23:50;;;;;;;10.43;7.40;;;13.20;99.90;;;;;;1927142;73;21046;-79
2022/11/12 16:27:01;;;;;;;10.25;6.60;;;13.20;99.90;;;;;;1921927;73;21155;-79
2022/11/12 16:30:18;;;;;;;7.05;6.12;;;13.10;99.90;;;;;;1916200;75;21071;-79
2022/11/12 16:33:27;;;;;;;10.65;6.72;;;13.10;99.90;;;;;;1924731;73;21175;-79
2022/11/12 16:36:38;;;;;;;8.38;6.62;;;13.10;99.90;;;;;;1916672;73;21153;-77
2022/11/12 16:39:47;;;;;;;10.30;7.08;;;13.10;99.90;;;;;;1916511;75;21094;-77
2022/11/12 16:42:58;;;;;;;8.03;7.05;;;13.10;99.90;;;;;;1918042;73;21236;-79
2022/11/12 16:48:56;;;;;;;8.08;6.50;;;13.10;99.90;;;;;;1948555;72;22162;-78
2022/11/12 16:52:05;;;;;;;8.45;6.65;;;13.10;99.90;;;;;;1899600;75;21091;-81
2022/11/12 16:55:15;;;;;;;10.00;6.65;;;13.00;99.90;;;;;;1886879;75;21376;-79
2022/11/12 16:58:24;;;;;;;8.33;6.60;;;13.00;99.90;;;;;;1913029;73;21223;-79
2022/11/12 17:01:34;;;;;;;7.83;5.83;;;12.90;99.90;;;;;;1895359;75;21788;-79
2022/11/12 17:04:44;;;;;;;7.67;6.10;;;12.90;99.90;;;;;;1905593;75;21196;-79
2022/11/12 17:07:56;;;;;;;9.88;6.35;;;12.80;99.90;;;;;;1883262;75;21131;-79
2022/11/12 17:11:09;;;;;;;9.88;6.33;;;12.80;99.90;;;;;;1896844;75;21185;-78
2022/11/12 17:14:19;;;;;;;10.05;6.47;;;12.80;99.90;;;;;;1893632;75;21159;-79
2022/11/12 17:17:30;;;;;;;8.78;6.60;;;12.80;99.90;;;;;;1893991;75;21180;-78
2022/11/12 17:20:39;;;;;;;8.38;7.08;;;12.70;99.90;;;;;;1894696;75;21161;-80
2022/11/12 17:23:48;;;;;;;10.63;7.17;;;12.70;99.90;;;;;;1889507;75;21116;-79
2022/11/12 17:26:58;;;;;;;8.18;6.72;;;12.60;99.90;;;;;;1887539;75;21545;-79
2022/11/12 17:30:10;;;;;;;10.35;6.50;;;12.60;99.90;;;;;;1905944;75;21099;-79
2022/11/12 17:33:20;;;;;;;9.35;7.17;;;12.70;99.90;;;;;;1905703;75;21139;-79
2022/11/12 17:36:29;;;;;;;12.78;7.75;;;12.70;99.90;;;;;;1905733;75;21211;-78
2022/11/12 17:39:39;;;;;;;10.55;7.78;;;12.60;99.90;;;;;;1905515;75;21133;-78
2022/11/12 17:45:33;;;;;;;8.60;7.15;;;12.60;99.90;;;;;;1963142;72;22743;-78
2022/11/12 17:48:42;;;;;;;8.10;7.22;;;12.60;99.90;;;;;;1905178;74;21106;-78
2022/11/12 17:51:52;;;;;;;18.50;11.68;;;12.50;99.90;;;;;;1904520;75;21099;-78
2022/11/12 17:55:01;;;;;;;41.88;24.45;;;12.60;99.90;;;;;;1904084;75;21032;-78
2022/11/12 17:58:11;;;;;;;10.50;7.87;;;12.60;99.90;;;;;;1904129;75;21196;-78
2022/11/12 18:01:22;;;;;;;9.50;7.25;;;12.50;99.90;;;;;;1904351;75;21417;-79
2022/11/12 18:04:32;;;;;;;13.20;8.90;;;12.40;99.90;;;;;;1912448;74;21122;-78
2022/11/12 18:07:41;;;;;;;10.15;8.40;;;12.40;99.90;;;;;;1906495;74;21148;-78
2022/11/12 18:10:51;;;;;;;10.85;8.20;;;12.50;99.90;;;;;;1905285;75;21181;-78
2022/11/12 18:14:02;;;;;;;11.30;8.43;;;12.40;99.90;;;;;;1906971;74;21142;-79
2022/11/12 18:17:13;;;;;;;12.80;8.45;;;12.40;99.90;;;;;;1917850;74;21172;-78
2022/11/12 18:20:24;;;;;;;11.70;8.60;;;12.50;99.90;;;;;;1915298;74;21164;-79
2022/11/12 18:23:37;;;;;;;10.58;8.55;;;12.50;99.90;;;;;;1914858;74;21155;-79
2022/11/12 18:26:46;;;;;;;11.45;8.20;;;12.50;99.90;;;;;;1913510;74;21190;-79
2022/11/12 18:29:55;;;;;;;11.35;8.58;;;12.50;99.90;;;;;;1903846;75;21642;-78
2022/11/12 18:35:42;;;;;;;10.80;7.78;;;12.30;99.90;;;;;;1957351;72;22198;-80
2022/11/12 18:38:53;;;;;;;11.53;8.05;;;12.40;99.90;;;;;;1895212;75;21087;-79
2022/11/12 18:42:03;;;;;;;11.80;7.95;;;12.40;99.90;;;;;;1893971;75;21106;-80
2022/11/12 18:45:13;;;;;;;10.88;8.33;;;12.30;99.90;;;;;;1905970;75;21094;-79
2022/11/12 18:48:22;;;;;;;10.88;8.53;;;12.20;99.90;;;;;;1905759;75;21155;-79
2022/11/12 18:51:32;;;;;;;12.53;9.23;;;12.20;99.90;;;;;;1905909;75;21566;-79
2022/11/12 18:54:41;;;;;;;13.50;8.90;;;12.20;99.90;;;;;;1905890;75;21142;-79
2022/11/12 18:57:51;;;;;;;12.70;9.33;;;12.20;99.90;;;;;;1906828;75;21156;-79
2022/11/12 19:01:04;;;;;;;11.75;9.03;;;12.20;99.90;;;;;;1894233;75;21121;-79
2022/11/12 19:04:13;;;;;;;12.93;9.03;;;12.20;99.90;;;;;;1894183;75;21103;-79
2022/11/12 19:07:22;;;;;;;14.38;9.50;;;12.20;99.90;;;;;;1892797;75;21562;-79
2022/11/12 19:10:32;;;;;;;12.82;9.83;;;12.20;99.90;;;;;;1885061;75;21086;-78
2022/11/12 19:13:42;;;;;;;12.35;8.83;;;12.20;99.90;;;;;;1905055;73;21110;-80